Time;durP1;ratioP1;P1;durP2;ratioP2;P2;SDS_P1;SDS_P2;PMS_P1;PMS_P2;Temp;Humidity;BMP_temperature;BMP_pressure;BME280_temperature;BME280_humidity;BME280_pressure;Samples;Min_cycle;Max_cycle;Signal;HPM_P1;HPM_P2
2023/03/23 00:01:22;;;;;;;7.90;3.80;;;27.90;99.90;;;;;;5027442;28;20029;-62
2023/03/23 00:03:52;;;;;;;8.07;3.72;;;27.90;99.90;;;;;;5026970;28;20136;-62
2023/03/23 00:06:20;;;;;;;7.38;3.92;;;27.70;99.90;;;;;;5028655;28;20018;-63
2023/03/23 00:08:52;;;;;;;6.78;2.70;;;27.70;99.90;;;;;;5026483;28;20108;-63
2023/03/23 00:11:22;;;;;;;8.45;3.25;;;27.60;99.90;;;;;;5024066;28;20069;-63
2023/03/23 00:13:51;;;;;;;7.75;3.28;;;27.50;99.90;;;;;;5022722;28;20014;-63
2023/03/23 00:16:30;;;;;;;10.10;3.40;;;27.30;99.90;;;;;;5030370;28;20482;-62
2023/03/23 00:19:02;;;;;;;6.85;3.28;;;27.20;99.90;;;;;;5027381;28;20020;-63
2023/03/23 00:21:34;;;;;;;8.52;4.28;;;27.00;99.90;;;;;;5026919;28;20077;-63
2023/03/23 00:24:08;;;;;;;14.25;3.75;;;26.90;99.90;;;;;;5024524;28;20029;-62
2023/03/23 00:26:40;;;;;;;8.15;3.83;;;26.70;99.90;;;;;;5025753;28;20039;-64
2023/03/23 00:29:16;;;;;;;8.75;3.50;;;26.40;99.90;;;;;;5023393;28;20044;-64
2023/03/23 00:31:48;;;;;;;8.32;3.85;;;26.20;99.90;;;;;;5034149;28;20049;-64
2023/03/23 00:34:21;;;;;;;7.63;4.05;;;25.90;99.90;;;;;;5019550;28;20013;-63
2023/03/23 00:36:50;;;;;;;9.50;4.22;;;25.70;99.90;;;;;;5022295;28;20024;-63
2023/03/23 00:39:19;;;;;;;11.63;4.68;;;25.50;99.90;;;;;;5017950;28;20028;-66
2023/03/23 00:41:47;;;;;;;9.63;4.10;;;25.40;99.90;;;;;;5028979;28;20615;-64
2023/03/23 00:44:18;;;;;;;6.07;4.05;;;25.30;99.90;;;;;;5022546;28;20026;-65
2023/03/23 00:46:48;;;;;;;11.52;4.65;;;25.20;99.90;;;;;;5029354;28;20029;-66
2023/03/23 00:49:18;;;;;;;7.97;4.30;;;25.10;99.90;;;;;;5029923;28;20119;-66
2023/03/23 00:51:46;;;;;;;6.80;4.45;;;25.00;99.90;;;;;;5026915;28;20045;-64
2023/03/23 00:54:14;;;;;;;8.60;4.07;;;25.00;99.90;;;;;;5024401;28;20475;-66
2023/03/23 00:56:41;;;;;;;8.98;4.28;;;24.90;99.90;;;;;;5027710;28;20034;-67
2023/03/23 00:59:09;;;;;;;12.07;3.95;;;24.80;99.90;;;;;;5027728;28;20094;-66
2023/03/23 01:01:37;;;;;;;10.20;4.82;;;24.80;99.90;;;;;;5024896;28;20034;-66
2023/03/23 01:04:05;;;;;;;15.13;5.07;;;24.90;99.90;;;;;;5030332;28;20072;-66
2023/03/23 01:06:38;;;;;;;7.75;4.18;;;24.90;99.90;;;;;;5028282;28;20033;-67
2023/03/23 01:09:07;;;;;;;8.70;4.03;;;25.00;99.90;;;;;;5033230;28;20305;-66
2023/03/23 01:11:35;;;;;;;16.08;4.22;;;25.00;99.90;;;;;;5041126;28;20041;-66
2023/03/23 01:14:03;;;;;;;12.20;5.13;;;25.00;99.90;;;;;;5032026;28;20378;-65
2023/03/23 01:16:31;;;;;;;7.40;4.28;;;25.00;99.90;;;;;;5036631;28;20033;-66
2023/03/23 01:18:58;;;;;;;12.90;4.18;;;25.00;99.90;;;;;;5031411;28;20032;-66
2023/03/23 01:21:25;;;;;;;12.85;4.45;;;25.00;99.90;;;;;;5043014;28;20561;-66
2023/03/23 01:23:53;;;;;;;6.57;3.80;;;25.00;99.90;;;;;;5042237;28;20236;-66
2023/03/23 01:26:23;;;;;;;10.70;4.20;;;25.10;99.90;;;;;;5033335;28;20033;-65
2023/03/23 01:28:50;;;;;;;9.55;3.88;;;25.10;99.90;;;;;;5040625;28;20033;-66
2023/03/23 01:31:24;;;;;;;11.80;3.60;;;25.20;99.90;;;;;;5037752;28;20517;-69
2023/03/23 01:33:52;;;;;;;8.43;3.95;;;25.20;99.90;;;;;;5043026;28;20033;-71
2023/03/23 01:36:23;;;;;;;14.43;4.40;;;25.30;99.90;;;;;;5034055;28;20033;-70
2023/03/23 01:38:51;;;;;;;9.68;3.72;;;25.40;99.90;;;;;;5042052;28;20096;-69
2023/03/23 01:41:20;;;;;;;10.07;3.45;;;25.40;99.90;;;;;;5037557;28;20032;-71
2023/03/23 01:44:06;;;;;;;9.88;3.50;;;25.40;99.90;;;;;;5037020;28;20025;-72
2023/03/23 01:46:35;;;;;;;11.60;4.63;;;25.40;99.90;;;;;;5042983;28;20512;-69
2023/03/23 01:49:26;;;;;;;10.30;3.70;;;25.40;99.90;;;;;;5023694;28;20029;-70
2023/03/23 01:52:02;;;;;;;10.73;3.55;;;25.30;99.90;;;;;;5022448;28;20132;-70
2023/03/23 01:54:29;;;;;;;15.52;3.88;;;25.30;99.90;;;;;;5031400;28;20018;-71
2023/03/23 01:57:04;;;;;;;6.60;3.20;;;25.30;99.90;;;;;;5028978;28;20104;-71
2023/03/23 01:59:35;;;;;;;11.00;4.45;;;25.40;99.90;;;;;;5026731;28;20021;-71
2023/03/23 02:02:03;;;;;;;15.50;4.45;;;25.40;99.90;;;;;;5019832;28;20482;-71
2023/03/23 02:04:32;;;;;;;21.05;5.00;;;25.50;99.90;;;;;;5026857;28;20025;-69
2023/03/23 02:07:00;;;;;;;10.60;4.40;;;25.60;99.90;;;;;;5026230;28;20124;-70
2023/03/23 02:09:27;;;;;;;9.60;3.58;;;25.70;99.90;;;;;;5026063;28;20018;-71
2023/03/23 02:11:56;;;;;;;8.60;3.80;;;25.90;99.90;;;;;;5015456;28;20092;-71
2023/03/23 02:14:26;;;;;;;8.68;3.92;;;26.10;99.90;;;;;;5027673;28;20319;-71
2023/03/23 02:17:05;;;;;;;7.93;3.63;;;26.30;99.90;;;;;;5023795;28;20669;-73
2023/03/23 02:19:51;;;;;;;8.27;3.05;;;26.50;99.90;;;;;;5034045;28;20029;-71
2023/03/23 02:22:53;;;;;;;8.25;3.13;;;26.90;99.90;;;;;;5028916;28;20093;-71
2023/03/23 02:25:27;;;;;;;8.15;4.07;;;27.10;99.90;;;;;;5025935;28;20584;-72
2023/03/23 02:28:36;;;;;;;9.33;3.60;;;27.40;99.90;;;;;;5021816;28;20639;-72
2023/03/23 02:31:38;;;;;;;12.63;4.90;;;27.70;99.90;;;;;;5021899;28;20290;-69
2023/03/23 02:34:51;;;;;;;11.32;5.63;;;27.80;99.90;;;;;;5015663;28;20041;-69
2023/03/23 02:37:40;;;;;;;8.45;4.38;;;28.00;99.90;;;;;;5025410;28;20087;-71
2023/03/23 02:40:26;;;;;;;5.05;2.85;;;28.40;99.90;;;;;;5023466;28;20028;-71
2023/03/23 02:42:57;;;;;;;8.90;2.63;;;28.90;99.90;;;;;;5029280;28;20079;-71
2023/03/23 02:45:28;;;;;;;5.15;2.72;;;29.20;99.90;;;;;;5027166;28;20431;-71
2023/03/23 02:47:57;;;;;;;5.22;2.78;;;29.30;99.90;;;;;;5026917;28;20033;-71
2023/03/23 02:50:27;;;;;;;7.55;3.50;;;29.30;99.90;;;;;;5030160;28;20026;-70
2023/03/23 02:52:56;;;;;;;6.78;2.60;;;29.10;99.90;;;;;;5021461;28;20041;-71
2023/03/23 02:55:24;;;;;;;5.50;2.65;;;29.00;99.90;;;;;;5022953;28;20175;-71
2023/03/23 02:57:54;;;;;;;9.05;3.45;;;28.90;99.90;;;;;;5026967;28;20117;-70
2023/03/23 03:00:22;;;;;;;5.40;3.10;;;28.80;99.90;;;;;;5024702;28;20017;-70
2023/03/23 03:02:55;;;;;;;11.18;2.80;;;28.50;99.90;;;;;;5021668;28;20033;-69
2023/03/23 03:06:06;;;;;;;4.55;2.97;;;28.00;99.90;;;;;;5022092;28;20048;-70
2023/03/23 03:09:03;;;;;;;3.83;2.50;;;27.70;99.90;;;;;;5023638;28;20057;-69
2023/03/23 03:11:32;;;;;;;4.93;2.20;;;27.30;99.90;;;;;;5030968;28;20033;-68
2023/03/23 03:14:17;;;;;;;3.53;2.35;;;27.00;99.90;;;;;;5023986;28;20049;-67
2023/03/23 03:17:20;;;;;;;5.88;3.30;;;26.60;99.90;;;;;;5022336;28;20033;-68
2023/03/23 03:19:51;;;;;;;5.45;2.33;;;26.30;99.90;;;;;;5024132;28;20427;-67
2023/03/23 03:22:21;;;;;;;6.03;2.47;;;26.00;99.90;;;;;;5023773;28;20025;-66
2023/03/23 03:24:50;;;;;;;4.40;2.10;;;25.60;99.90;;;;;;5028435;28;20014;-68
2023/03/23 03:27:20;;;;;;;11.00;2.40;;;25.30;99.90;;;;;;5024549;28;20049;-68
2023/03/23 03:29:54;;;;;;;6.38;2.28;;;25.10;99.90;;;;;;5026782;28;20021;-67
2023/03/23 03:32:26;;;;;;;3.05;2.00;;;25.00;99.90;;;;;;5019985;28;20128;-68
2023/03/23 03:34:53;;;;;;;5.15;2.47;;;24.80;99.90;;;;;;5025010;28;20263;-68
2023/03/23 03:37:21;;;;;;;3.97;1.90;;;24.60;99.90;;;;;;5024824;28;20059;-67
2023/03/23 03:39:48;;;;;;;5.63;2.42;;;24.50;99.90;;;;;;5020815;28;20502;-68
2023/03/23 03:42:16;;;;;;;3.00;2.05;;;24.50;99.90;;;;;;5024802;28;20037;-67
2023/03/23 03:44:43;;;;;;;5.72;2.28;;;24.60;99.90;;;;;;5022939;28;20465;-67
2023/03/23 03:47:10;;;;;;;5.93;2.28;;;24.70;99.90;;;;;;5025162;28;20029;-68
2023/03/23 03:49:38;;;;;;;3.60;2.25;;;24.90;99.90;;;;;;5026229;28;20025;-67
2023/03/23 03:52:05;;;;;;;4.93;2.42;;;25.10;99.90;;;;;;5021588;28;20049;-67
2023/03/23 03:54:32;;;;;;;5.00;2.08;;;25.20;99.90;;;;;;5017563;28;20029;-68
2023/03/23 03:57:00;;;;;;;4.00;1.77;;;25.40;99.90;;;;;;5023884;28;20030;-68
2023/03/23 03:59:28;;;;;;;4.10;1.60;;;25.50;99.90;;;;;;5021020;28;20080;-67
2023/03/23 04:01:55;;;;;;;2.63;1.50;;;25.50;99.90;;;;;;5022428;28;20022;-72
2023/03/23 04:04:23;;;;;;;4.75;1.52;;;25.50;99.90;;;;;;5023098;28;20509;-68
2023/03/23 04:06:50;;;;;;;2.45;1.60;;;25.40;99.90;;;;;;5026024;28;20041;-68
2023/03/23 04:09:19;;;;;;;2.67;1.48;;;25.60;99.90;;;;;;5017460;28;20033;-69
2023/03/23 04:11:46;;;;;;;6.20;2.28;;;25.70;99.90;;;;;;5023990;28;20033;-68
2023/03/23 04:14:14;;;;;;;3.92;1.75;;;25.70;99.90;;;;;;5022652;28;20044;-69
2023/03/23 04:16:43;;;;;;;3.58;2.13;;;25.80;99.90;;;;;;5024630;28;20036;-68
2023/03/23 04:19:12;;;;;;;5.45;2.35;;;25.80;99.90;;;;;;5022804;28;20091;-68
2023/03/23 04:21:40;;;;;;;3.10;1.73;;;25.70;99.90;;;;;;5015106;28;20026;-68
2023/03/23 04:24:07;;;;;;;3.00;1.92;;;25.60;99.90;;;;;;5018725;28;20479;-67
2023/03/23 04:26:35;;;;;;;5.38;1.98;;;25.60;99.90;;;;;;5024164;28;20039;-67
2023/03/23 04:29:03;;;;;;;4.22;2.28;;;25.50;99.90;;;;;;5026261;28;20029;-69
2023/03/23 04:31:31;;;;;;;5.80;1.70;;;25.20;99.90;;;;;;5023053;28;20425;-67
2023/03/23 04:34:01;;;;;;;7.22;3.40;;;25.00;99.90;;;;;;5026464;28;20471;-70
2023/03/23 04:36:29;;;;;;;5.88;2.80;;;24.90;99.90;;;;;;5028272;28;20033;-68
2023/03/23 04:38:57;;;;;;;7.03;2.30;;;24.80;99.90;;;;;;5018824;28;20052;-68
2023/03/23 04:41:24;;;;;;;2.75;1.85;;;24.70;99.90;;;;;;5020504;28;20044;-69
2023/03/23 04:43:53;;;;;;;3.67;1.90;;;24.50;99.90;;;;;;5023221;28;20033;-68
2023/03/23 04:46:21;;;;;;;5.38;1.90;;;24.30;99.90;;;;;;5020860;28;20372;-66
2023/03/23 04:48:48;;;;;;;3.58;1.70;;;24.20;99.90;;;;;;5022311;28;20029;-69
2023/03/23 04:51:16;;;;;;;3.50;1.65;;;24.10;99.90;;;;;;5021810;28;20029;-68
2023/03/23 04:53:43;;;;;;;5.45;1.65;;;24.00;99.90;;;;;;5021818;28;20120;-66
2023/03/23 04:56:13;;;;;;;7.97;2.47;;;24.00;99.90;;;;;;5025167;28;20115;-67
2023/03/23 04:58:41;;;;;;;3.55;1.85;;;24.00;99.90;;;;;;5034241;28;20044;-67
2023/03/23 05:01:08;;;;;;;3.83;1.95;;;23.90;99.90;;;;;;5028358;28;20025;-68
2023/03/23 05:03:36;;;;;;;5.45;2.00;;;23.90;99.90;;;;;;5026064;28;20116;-68
2023/03/23 05:06:04;;;;;;;3.65;1.92;;;23.90;99.90;;;;;;5030213;28;20040;-68
2023/03/23 05:08:32;;;;;;;5.10;1.75;;;23.90;99.90;;;;;;5027953;28;20473;-73
2023/03/23 05:11:01;;;;;;;4.97;1.85;;;23.90;99.90;;;;;;5037598;28;20089;-70
2023/03/23 05:13:29;;;;;;;3.45;1.27;;;23.80;99.90;;;;;;5031362;28;20497;-67
2023/03/23 05:15:57;;;;;;;2.72;1.15;;;23.70;99.90;;;;;;5033671;28;20057;-67
2023/03/23 05:18:26;;;;;;;1.60;1.08;;;23.50;99.90;;;;;;5032781;28;20038;-70
2023/03/23 05:20:53;;;;;;;2.65;0.90;;;23.40;99.90;;;;;;5028088;28;20029;-71
2023/03/23 05:23:20;;;;;;;4.68;1.50;;;23.30;99.90;;;;;;5027318;28;20040;-69
2023/03/23 05:25:55;;;;;;;3.97;1.27;;;23.20;99.90;;;;;;5028527;28;20025;-75
2023/03/23 05:28:23;;;;;;;4.95;1.60;;;23.10;99.90;;;;;;5023100;28;20478;-71
2023/03/23 05:30:51;;;;;;;2.83;1.35;;;23.00;99.90;;;;;;5037694;28;20578;-73
2023/03/23 05:33:19;;;;;;;2.92;1.27;;;22.90;99.90;;;;;;5020715;28;20056;-66
2023/03/23 05:35:48;;;;;;;4.22;1.23;;;22.70;99.90;;;;;;5017881;28;20033;-67
2023/03/23 05:38:19;;;;;;;3.35;1.80;;;22.50;99.90;;;;;;5029244;28;20486;-68
2023/03/23 05:40:46;;;;;;;5.43;1.30;;;22.40;99.90;;;;;;5030043;28;20026;-68
2023/03/23 05:43:14;;;;;;;2.70;1.30;;;22.20;99.90;;;;;;5032113;28;20100;-68
2023/03/23 05:45:41;;;;;;;3.67;1.35;;;21.90;99.90;;;;;;5023575;28;20089;-67
2023/03/23 05:48:09;;;;;;;5.63;1.70;;;21.70;99.90;;;;;;5024729;28;20037;-67
2023/03/23 05:50:36;;;;;;;3.08;1.60;;;21.50;99.90;;;;;;5025253;28;20029;-67
2023/03/23 05:53:04;;;;;;;5.00;1.67;;;21.30;99.90;;;;;;5025062;28;20088;-66
2023/03/23 05:55:32;;;;;;;3.30;1.77;;;21.10;99.90;;;;;;5026154;28;20030;-67
2023/03/23 05:58:00;;;;;;;5.03;1.58;;;20.90;99.90;;;;;;5037049;28;20083;-66
2023/03/23 06:00:29;;;;;;;4.53;1.63;;;20.80;99.90;;;;;;5026930;28;20048;-66
2023/03/23 06:02:58;;;;;;;2.72;1.40;;;20.70;99.90;;;;;;5032681;28;20025;-67
2023/03/23 06:05:25;;;;;;;5.00;1.48;;;20.50;99.90;;;;;;5033363;28;20128;-67
2023/03/23 06:07:53;;;;;;;5.55;1.73;;;20.40;99.90;;;;;;5028780;28;20060;-68
2023/03/23 06:10:22;;;;;;;5.00;1.98;;;20.30;99.90;;;;;;5033743;28;20018;-68
2023/03/23 06:12:54;;;;;;;5.20;1.60;;;20.20;99.90;;;;;;5031604;28;20037;-67
2023/03/23 06:15:21;;;;;;;5.22;2.20;;;20.10;99.90;;;;;;5023315;28;20028;-67
2023/03/23 06:17:50;;;;;;;3.38;1.70;;;20.10;99.90;;;;;;5029126;28;20052;-67
2023/03/23 06:20:17;;;;;;;3.85;2.00;;;20.00;99.90;;;;;;5031113;28;20021;-67
2023/03/23 06:22:45;;;;;;;5.38;3.00;;;20.00;99.90;;;;;;5039018;28;20051;-66
2023/03/23 06:25:13;;;;;;;7.22;2.58;;;20.10;99.90;;;;;;5030804;28;20021;-65
2023/03/23 06:27:40;;;;;;;5.82;2.70;;;20.10;99.90;;;;;;5031004;28;20083;-67
2023/03/23 06:30:09;;;;;;;5.70;3.33;;;20.10;99.90;;;;;;5031832;28;20083;-67
2023/03/23 06:32:38;;;;;;;5.78;2.40;;;20.00;99.90;;;;;;5029759;28;20053;-66
2023/03/23 06:35:09;;;;;;;8.63;2.65;;;20.00;99.90;;;;;;5032462;28;20486;-66
2023/03/23 06:37:37;;;;;;;7.95;3.08;;;20.00;99.90;;;;;;5023891;28;20080;-66
2023/03/23 06:40:06;;;;;;;9.40;3.40;;;20.10;99.90;;;;;;5031048;28;20025;-67
2023/03/23 06:42:34;;;;;;;8.82;3.03;;;20.00;99.90;;;;;;5023844;28;20079;-66
2023/03/23 06:45:03;;;;;;;7.75;3.15;;;20.10;99.90;;;;;;5016908;28;20030;-67
2023/03/23 06:47:31;;;;;;;10.20;4.43;;;20.10;99.90;;;;;;5014298;28;20029;-66
2023/03/23 06:49:58;;;;;;;5.30;2.75;;;20.10;99.90;;;;;;5039890;28;20108;-66
2023/03/23 06:52:27;;;;;;;6.18;2.42;;;20.00;99.90;;;;;;5024474;28;20080;-66
2023/03/23 06:54:54;;;;;;;4.88;1.95;;;20.00;99.90;;;;;;5025121;28;20112;-70
2023/03/23 06:57:22;;;;;;;8.63;2.95;;;19.90;99.90;;;;;;5040387;28;20527;-72
2023/03/23 06:59:49;;;;;;;5.32;2.42;;;19.90;99.90;;;;;;5028198;28;20109;-69
2023/03/23 07:02:17;;;;;;;6.10;3.10;;;19.80;99.90;;;;;;5027009;28;20034;-67
2023/03/23 07:04:45;;;;;;;8.02;2.80;;;19.70;99.90;;;;;;5030814;28;20071;-69
2023/03/23 07:07:14;;;;;;;10.70;3.00;;;19.70;99.90;;;;;;5023460;28;20133;-72
2023/03/23 07:09:42;;;;;;;6.47;2.60;;;19.70;99.90;;;;;;5021169;28;20029;-71
2023/03/23 07:12:09;;;;;;;7.03;2.67;;;19.70;99.90;;;;;;5020617;28;20034;-68
2023/03/23 07:14:37;;;;;;;5.20;2.20;;;19.70;99.90;;;;;;5024946;28;20102;-67
2023/03/23 07:17:05;;;;;;;7.47;2.85;;;19.70;99.90;;;;;;5033705;28;20033;-70
2023/03/23 07:19:33;;;;;;;6.45;3.30;;;19.80;99.90;;;;;;5024629;28;20040;-65
2023/03/23 07:22:00;;;;;;;7.03;2.88;;;19.70;99.90;;;;;;5021651;28;20122;-68
2023/03/23 07:24:28;;;;;;;4.88;2.70;;;19.70;99.90;;;;;;5024020;28;20025;-68
2023/03/23 07:26:56;;;;;;;7.00;2.92;;;19.70;99.90;;;;;;5037402;28;20037;-69
2023/03/23 07:29:23;;;;;;;6.80;2.83;;;19.70;99.90;;;;;;5024548;28;20080;-69
2023/03/23 07:31:52;;;;;;;8.07;4.20;;;19.70;99.90;;;;;;5020978;28;20050;-71
2023/03/23 07:34:20;;;;;;;9.73;4.20;;;19.70;99.90;;;;;;5024679;28;20163;-68
2023/03/23 07:36:48;;;;;;;7.43;3.72;;;19.70;99.90;;;;;;5020800;28;20052;-67
2023/03/23 07:39:16;;;;;;;7.35;3.28;;;19.70;99.90;;;;;;5028277;28;20025;-67
2023/03/23 07:41:43;;;;;;;11.20;4.18;;;19.60;99.90;;;;;;5022049;28;20025;-67
2023/03/23 07:44:10;;;;;;;9.90;4.70;;;19.50;99.90;;;;;;5022893;28;20033;-70
2023/03/23 07:46:38;;;;;;;6.65;3.63;;;19.50;99.90;;;;;;5024597;28;20100;-70
2023/03/23 07:49:10;;;;;;;11.48;3.50;;;19.50;99.90;;;;;;5028106;28;20021;-67
2023/03/23 07:51:40;;;;;;;7.45;3.17;;;19.50;99.90;;;;;;5026698;28;20068;-68
2023/03/23 07:54:08;;;;;;;10.25;3.58;;;19.50;99.90;;;;;;5028017;28;20029;-68
2023/03/23 07:56:39;;;;;;;6.63;3.17;;;19.50;99.90;;;;;;5030885;28;20021;-69
2023/03/23 07:59:11;;;;;;;6.90;3.10;;;19.40;99.90;;;;;;5019935;28;20034;-70
2023/03/23 08:01:38;;;;;;;7.55;2.55;;;19.40;99.90;;;;;;5013674;28;20053;-68
2023/03/23 08:04:07;;;;;;;6.57;2.83;;;19.40;99.90;;;;;;5015223;28;20026;-69
2023/03/23 08:06:35;;;;;;;5.80;2.80;;;19.40;99.90;;;;;;5015082;28;20021;-70
2023/03/23 08:09:06;;;;;;;6.80;2.65;;;19.40;99.90;;;;;;5016122;28;20539;-69
2023/03/23 08:11:35;;;;;;;8.63;2.70;;;19.30;99.90;;;;;;5022769;28;20029;-70
2023/03/23 08:14:03;;;;;;;7.90;3.00;;;19.40;99.90;;;;;;5016108;28;20032;-68
2023/03/23 08:16:34;;;;;;;6.53;3.15;;;19.30;99.90;;;;;;5026399;28;20108;-67
2023/03/23 08:19:02;;;;;;;15.38;3.55;;;19.40;99.90;;;;;;5025603;28;20013;-69
2023/03/23 08:21:34;;;;;;;6.80;3.58;;;19.40;99.90;;;;;;5024528;28;20115;-70
2023/03/23 08:24:02;;;;;;;9.10;3.28;;;19.40;99.90;;;;;;5019969;28;20171;-61
2023/03/23 08:26:29;;;;;;;7.07;3.20;;;19.30;99.90;;;;;;5014924;28;20026;-62
2023/03/23 08:29:00;;;;;;;8.18;3.92;;;19.30;99.90;;;;;;5016405;28;20030;-63
2023/03/23 08:31:35;;;;;;;6.82;3.97;;;19.30;99.90;;;;;;5023787;28;20037;-62
2023/03/23 08:34:04;;;;;;;9.95;4.03;;;19.30;99.90;;;;;;5023023;28;20410;-61
2023/03/23 08:36:33;;;;;;;8.10;4.63;;;19.30;99.90;;;;;;5021015;28;20479;-60
2023/03/23 08:39:02;;;;;;;9.90;4.40;;;19.30;99.90;;;;;;5014748;28;20076;-61
2023/03/23 08:41:30;;;;;;;8.35;4.68;;;19.30;99.90;;;;;;5016602;28;20037;-61
2023/03/23 08:43:57;;;;;;;10.40;4.20;;;19.30;99.90;;;;;;5017355;28;20024;-61
2023/03/23 08:46:25;;;;;;;7.80;5.28;;;19.20;99.90;;;;;;5020602;28;20445;-61
2023/03/23 08:48:54;;;;;;;9.20;5.13;;;19.20;99.90;;;;;;5013551;28;20451;-62
2023/03/23 08:51:21;;;;;;;9.80;4.80;;;19.20;99.90;;;;;;5026134;28;20041;-62
2023/03/23 08:53:49;;;;;;;9.70;5.25;;;19.10;99.90;;;;;;5029702;28;20037;-61
2023/03/23 08:56:16;;;;;;;6.32;3.80;;;19.10;99.90;;;;;;5023488;28;20034;-61
2023/03/23 08:58:44;;;;;;;5.80;3.53;;;19.00;99.90;;;;;;5014338;28;20029;-62
2023/03/23 09:01:11;;;;;;;5.57;3.65;;;19.00;99.90;;;;;;5021677;28;20021;-62
2023/03/23 09:03:40;;;;;;;5.68;3.40;;;19.00;99.90;;;;;;5026969;28;20554;-61
2023/03/23 09:06:10;;;;;;;8.70;3.92;;;18.90;99.90;;;;;;5021182;28;20135;-61
2023/03/23 09:08:39;;;;;;;6.32;3.42;;;18.90;99.90;;;;;;5026883;28;20870;-60
2023/03/23 09:11:08;;;;;;;7.05;2.75;;;18.80;99.90;;;;;;5031890;28;20104;-62
2023/03/23 09:13:37;;;;;;;8.55;4.30;;;18.80;99.90;;;;;;5029576;28;20033;-61
2023/03/23 09:16:06;;;;;;;6.10;2.70;;;18.70;99.90;;;;;;5018740;28;20117;-61
2023/03/23 09:18:34;;;;;;;5.40;2.40;;;18.70;99.90;;;;;;5022763;28;20124;-63
2023/03/23 09:21:03;;;;;;;6.70;2.75;;;18.70;99.90;;;;;;5022257;28;20025;-61
2023/03/23 09:23:31;;;;;;;4.75;2.30;;;18.70;99.90;;;;;;5038834;28;20033;-61
2023/03/23 09:26:00;;;;;;;4.32;2.30;;;18.60;99.90;;;;;;5033332;28;20044;-61
2023/03/23 09:28:28;;;;;;;5.22;2.42;;;18.60;99.90;;;;;;5013680;28;20168;-61
2023/03/23 09:30:58;;;;;;;4.05;2.35;;;18.60;99.90;;;;;;5034823;28;20040;-62
2023/03/23 09:33:28;;;;;;;7.32;3.53;;;18.60;99.90;;;;;;5030732;28;20036;-61
2023/03/23 09:35:56;;;;;;;6.30;3.15;;;18.60;99.90;;;;;;5030131;28;20029;-62
2023/03/23 09:38:24;;;;;;;5.90;3.20;;;18.50;99.90;;;;;;5033695;28;20052;-61
2023/03/23 09:41:04;;;;;;;7.30;3.15;;;18.50;99.90;;;;;;5032274;28;20030;-62
2023/03/23 09:44:01;;;;;;;9.32;3.70;;;18.40;99.90;;;;;;5032069;28;20903;-63
2023/03/23 09:46:37;;;;;;;5.10;2.38;;;18.40;99.90;;;;;;5017251;28;20033;-61
2023/03/23 09:49:40;;;;;;;5.45;3.92;;;18.40;99.90;;;;;;5014647;28;20469;-61
2023/03/23 09:52:15;;;;;;;6.38;3.58;;;18.40;99.90;;;;;;5000980;28;20518;-61
2023/03/23 09:54:53;;;;;;;4.50;2.90;;;18.30;99.90;;;;;;5030001;28;20032;-61
2023/03/23 09:57:30;;;;;;;6.05;2.65;;;18.30;99.90;;;;;;5025125;28;20038;-61
2023/03/23 10:00:16;;;;;;;4.18;3.20;;;18.30;99.90;;;;;;5030673;28;20052;-61
2023/03/23 10:02:53;;;;;;;5.32;3.28;;;18.30;99.90;;;;;;5019194;28;20116;-61
2023/03/23 10:05:45;;;;;;;8.10;3.10;;;18.20;99.90;;;;;;5037923;28;20071;-62
2023/03/23 10:08:16;;;;;;;5.28;3.05;;;18.20;99.90;;;;;;5037534;28;20140;-62
2023/03/23 10:10:50;;;;;;;5.80;3.50;;;18.10;99.90;;;;;;5041798;28;20145;-62
2023/03/23 10:13:45;;;;;;;8.85;4.18;;;18.10;99.90;;;;;;5027594;28;20038;-62
2023/03/23 10:16:35;;;;;;;9.88;5.30;;;18.10;99.90;;;;;;5026375;28;20034;-61
2023/03/23 10:19:11;;;;;;;8.98;4.40;;;18.10;99.90;;;;;;5035388;28;20117;-62
2023/03/23 10:21:43;;;;;;;5.85;3.83;;;18.10;99.90;;;;;;5023330;28;20478;-62
2023/03/23 10:24:14;;;;;;;10.25;4.25;;;18.10;99.90;;;;;;5025308;28;20033;-62
2023/03/23 10:26:49;;;;;;;7.22;2.88;;;18.10;99.90;;;;;;5021270;28;20025;-62
2023/03/23 10:29:23;;;;;;;24.17;2.63;;;18.20;99.90;;;;;;5023188;28;20049;-62
2023/03/23 10:32:11;;;;;;;4.43;2.38;;;18.20;99.90;;;;;;5028849;28;20037;-61
2023/03/23 10:34:54;;;;;;;4.55;2.10;;;18.10;99.90;;;;;;5040370;28;20037;-62
2023/03/23 10:37:33;;;;;;;5.75;2.40;;;18.10;99.90;;;;;;5030496;28;20037;-62
2023/03/23 10:40:10;;;;;;;5.78;2.80;;;18.20;99.90;;;;;;5028449;28;20026;-62
2023/03/23 10:42:39;;;;;;;7.25;3.65;;;18.20;99.90;;;;;;5027040;28;20513;-62
2023/03/23 10:45:25;;;;;;;9.98;4.40;;;18.40;99.90;;;;;;5023845;28;20063;-62
2023/03/23 10:48:17;;;;;;;13.55;5.05;;;18.40;99.90;;;;;;5021939;28;20357;-62
2023/03/23 10:50:49;;;;;;;19.95;6.50;;;18.50;99.90;;;;;;5020533;28;20108;-61
2023/03/23 10:53:39;;;;;;;20.70;6.65;;;18.50;99.90;;;;;;5021975;28;20037;-61
2023/03/23 10:56:28;;;;;;;14.77;5.40;;;18.60;99.90;;;;;;5013304;28;20356;-62
2023/03/23 10:58:56;;;;;;;9.57;4.00;;;18.60;99.90;;;;;;5018278;28;20026;-61
2023/03/23 11:01:36;;;;;;;10.73;4.18;;;18.60;99.90;;;;;;5020453;28;20041;-61
2023/03/23 11:04:10;;;;;;;6.97;3.80;;;18.60;99.90;;;;;;5012094;28;20112;-62
2023/03/23 11:06:58;;;;;;;5.53;3.13;;;18.60;99.90;;;;;;5021321;28;20026;-61
2023/03/23 11:09:37;;;;;;;8.27;3.08;;;18.60;99.90;;;;;;5026310;28;20082;-60
2023/03/23 11:12:16;;;;;;;5.63;3.20;;;18.50;99.90;;;;;;5014312;28;20140;-62
2023/03/23 11:14:44;;;;;;;8.20;2.50;;;18.50;99.90;;;;;;5019108;28;20017;-61
2023/03/23 11:17:27;;;;;;;5.95;2.70;;;18.50;99.90;;;;;;5013719;28;20025;-60
2023/03/23 11:19:55;;;;;;;6.15;2.95;;;18.40;99.90;;;;;;5032282;28;20030;-61
2023/03/23 11:22:32;;;;;;;6.60;3.17;;;18.40;99.90;;;;;;5019912;28;20030;-60
2023/03/23 11:25:05;;;;;;;4.30;2.78;;;18.40;99.90;;;;;;5026667;28;20028;-61
2023/03/23 11:27:35;;;;;;;7.18;2.75;;;18.40;99.90;;;;;;5016082;28;20053;-62
2023/03/23 11:30:21;;;;;;;6.07;2.90;;;18.30;99.90;;;;;;5017650;28;20485;-67
2023/03/23 11:32:49;;;;;;;6.68;2.40;;;18.30;99.90;;;;;;5016953;28;20029;-62
2023/03/23 11:35:28;;;;;;;4.95;2.65;;;18.30;99.90;;;;;;5015426;28;20080;-62
2023/03/23 11:38:06;;;;;;;5.85;2.40;;;18.30;99.90;;;;;;5019224;28;20522;-64
2023/03/23 11:40:35;;;;;;;5.00;3.10;;;18.30;99.90;;;;;;5019001;28;20029;-61
2023/03/23 11:43:20;;;;;;;5.97;2.90;;;18.20;99.90;;;;;;5019497;28;20025;-63
2023/03/23 11:45:50;;;;;;;;;;;18.20;99.90;;;;;;5020409;28;20036;-63
2023/03/23 11:48:42;;;;;;;5.53;2.90;;;18.30;99.90;;;;;;5027417;28;19980;-62
2023/03/23 11:51:16;;;;;;;5.75;2.80;;;18.30;99.90;;;;;;5031180;28;20566;-62
2023/03/23 11:54:14;;;;;;;11.05;3.88;;;18.30;99.90;;;;;;5015973;28;20467;-61
2023/03/23 11:56:47;;;;;;;8.32;3.72;;;18.30;99.90;;;;;;5029185;28;20101;-62
2023/03/23 11:59:26;;;;;;;10.00;3.45;;;18.30;99.90;;;;;;5024967;28;20021;-62
2023/03/23 12:02:29;;;;;;;7.60;4.18;;;18.30;99.90;;;;;;5026217;28;20640;-61
2023/03/23 12:05:18;;;;;;;13.35;3.25;;;18.30;99.90;;;;;;5025451;28;20026;-62
2023/03/23 12:08:22;;;;;;;6.57;3.03;;;18.30;99.90;;;;;;5026798;28;20037;-61
2023/03/23 12:11:13;;;;;;;6.00;3.47;;;18.20;99.90;;;;;;5028425;28;20044;-62
2023/03/23 12:13:55;;;;;;;8.68;3.15;;;18.20;99.90;;;;;;5032981;28;20040;-61
2023/03/23 12:16:39;;;;;;;6.45;3.13;;;18.20;99.90;;;;;;5018059;28;20029;-61
2023/03/23 12:19:33;;;;;;;12.13;3.90;;;18.10;99.90;;;;;;5019081;28;20036;-64
2023/03/23 12:22:08;;;;;;;9.30;3.28;;;18.10;99.90;;;;;;5026105;28;20025;-62
2023/03/23 12:25:01;;;;;;;7.15;3.03;;;18.10;99.90;;;;;;5026382;28;20037;-62
2023/03/23 12:27:52;;;;;;;10.57;4.32;;;18.00;99.90;;;;;;5016132;28;20115;-60
2023/03/23 12:30:28;;;;;;;12.20;4.30;;;18.00;99.90;;;;;;5013446;28;20033;-62
2023/03/23 12:33:12;;;;;;;16.38;6.10;;;18.00;99.90;;;;;;5018363;28;20044;-61
2023/03/23 12:36:05;;;;;;;10.70;4.32;;;18.00;99.90;;;;;;5030929;28;20040;-61
2023/03/23 12:38:53;;;;;;;11.40;4.65;;;18.00;99.90;;;;;;5026650;28;20553;-61
2023/03/23 12:41:30;;;;;;;10.95;4.28;;;18.00;99.90;;;;;;5017271;28;21781;-62
2023/03/23 12:44:09;;;;;;;8.95;4.18;;;18.10;99.90;;;;;;5017610;28;20038;-61
2023/03/23 12:46:44;;;;;;;17.45;4.82;;;18.00;99.90;;;;;;5029308;28;20904;-61
2023/03/23 12:49:34;;;;;;;10.52;5.07;;;18.10;99.90;;;;;;5027482;28;20029;-62
2023/03/23 12:52:15;;;;;;;12.48;4.78;;;18.10;99.90;;;;;;5024807;28;20033;-61
2023/03/23 12:55:10;;;;;;;12.60;4.97;;;18.10;99.90;;;;;;5032946;28;20036;-62
2023/03/23 12:57:40;;;;;;;9.32;4.57;;;18.10;99.90;;;;;;5024733;28;20493;-61
2023/03/23 13:00:17;;;;;;;9.13;4.60;;;18.00;99.90;;;;;;5021643;28;20026;-63
2023/03/23 13:02:47;;;;;;;13.18;4.28;;;18.00;99.90;;;;;;5026669;28;20389;-61
2023/03/23 13:05:24;;;;;;;8.82;3.90;;;17.90;99.90;;;;;;5043491;28;20477;-61
2023/03/23 13:08:30;;;;;;;9.80;3.97;;;17.90;99.90;;;;;;5032689;28;20062;-61
2023/03/23 13:11:08;;;;;;;10.38;5.05;;;17.80;99.90;;;;;;5025901;28;20037;-61
2023/03/23 13:13:51;;;;;;;10.43;4.45;;;17.80;99.90;;;;;;5016702;28;20037;-62
2023/03/23 13:16:26;;;;;;;8.55;4.70;;;17.70;99.90;;;;;;5032104;28;20025;-63